sensor_id;sensor_type;location;lat;lon;timestamp;pressure;altitude;pressure_sealevel;temperature;humidity
17950;BME280;9100;48.700;9.316;2022-12-07T00:00:32;97766.7;;;5.42;100
17950;BME280;9100;48.700;9.316;2022-12-07T00:00:43;97764.9;;;5.42;100
17950;BME280;9100;48.700;9.316;2022-12-07T00:01:33;97767.3;;;5.44;100
17950;BME280;9100;48.700;9.316;2022-12-07T00:02:32;97758;;;5.44;100
17950;BME280;9100;48.700;9.316;2022-12-07T00:03:32;97764;;;5.43;100
17950;BME280;9100;48.700;9.316;2022-12-07T00:04:32;97766.5;;;5.43;100
17950;BME280;9100;48.700;9.316;2022-12-07T00:05:32;97765.7;;;5.43;100
17950;BME280;9100;48.700;9.316;2022-12-07T00:05:43;97766.5;;;5.43;100
17950;BME280;9100;48.700;9.316;2022-12-07T00:06:32;97766.5;;;5.43;100
17950;BME280;9100;48.700;9.316;2022-12-07T00:07:32;97761.5;;;5.43;100
17950;BME280;9100;48.700;9.316;2022-12-07T00:08:32;97763;;;5.44;100
17950;BME280;9100;48.700;9.316;2022-12-07T00:09:32;97764;;;5.43;100
17950;BME280;9100;48.700;9.316;2022-12-07T00:10:32;97763;;;5.44;100
17950;BME280;9100;48.700;9.316;2022-12-07T00:10:43;97763.8;;;5.45;100
17950;BME280;9100;48.700;9.316;2022-12-07T00:11:32;97764.59999999999;;;5.45;100
17950;BME280;9100;48.700;9.316;2022-12-07T00:12:32;97757;;;5.45;100
17950;BME280;9100;48.700;9.316;2022-12-07T00:13:32;97761.2;;;5.46;100
17950;BME280;9100;48.700;9.316;2022-12-07T00:14:32;97700.3;;;5.11;100
17950;BME280;9100;48.700;9.316;2022-12-07T00:15:33;97757.7;;;5.47;100
17950;BME280;9100;48.700;9.316;2022-12-07T00:15:43;97756.9;;;5.47;100
17950;BME280;9100;48.700;9.316;2022-12-07T00:16:32;97759.3;;;5.48;100
17950;BME280;9100;48.700;9.316;2022-12-07T00:17:32;97759.90000000001;;;5.5;100
17950;BME280;9100;48.700;9.316;2022-12-07T00:18:32;97763.4;;;5.49;100
17950;BME280;9100;48.700;9.316;2022-12-07T00:19:32;97755.9;;;5.48;100
17950;BME280;9100;48.700;9.316;2022-12-07T00:20:32;97773.5;;;5.49;100
17950;BME280;9100;48.700;9.316;2022-12-07T00:20:43;97765.09999999999;;;5.49;100
17950;BME280;9100;48.700;9.316;2022-12-07T00:21:32;97760.90000000001;;;5.49;100
17950;BME280;9100;48.700;9.316;2022-12-07T00:22:32;97760.90000000001;;;5.49;100
17950;BME280;9100;48.700;9.316;2022-12-07T00:23:32;97763.4;;;5.49;100
17950;BME280;9100;48.700;9.316;2022-12-07T00:24:32;97756.7;;;5.48;100
17950;BME280;9100;48.700;9.316;2022-12-07T00:25:32;97762.7;;;5.47;100
17950;BME280;9100;48.700;9.316;2022-12-07T00:25:43;97761.8;;;5.48;100
17950;BME280;9100;48.700;9.316;2022-12-07T00:26:33;97757.7;;;5.47;100
17950;BME280;9100;48.700;9.316;2022-12-07T00:27:32;97759.3;;;5.48;100
17950;BME280;9100;48.700;9.316;2022-12-07T00:28:32;97761.8;;;5.48;100
17950;BME280;9100;48.700;9.316;2022-12-07T00:29:32;97763.4;;;5.49;100
17950;BME280;9100;48.700;9.316;2022-12-07T00:30:32;97755.9;;;5.48;100
17950;BME280;9100;48.700;9.316;2022-12-07T00:30:43;97757.7;;;5.47;100
17950;BME280;9100;48.700;9.316;2022-12-07T00:31:32;97758.3;;;5.49;100
17950;BME280;9100;48.700;9.316;2022-12-07T00:32:32;97759.3;;;5.48;100
17950;BME280;9100;48.700;9.316;2022-12-07T00:33:32;97760.2;;;5.47;100
17950;BME280;9100;48.700;9.316;2022-12-07T00:34:32;97757.7;;;5.47;100
17950;BME280;9100;48.700;9.316;2022-12-07T00:35:32;97758;;;5.44;100
17950;BME280;9100;48.700;9.316;2022-12-07T00:35:43;97763;;;5.44;100
17950;BME280;9100;48.700;9.316;2022-12-07T00:36:32;97762.09999999999;;;5.45;100
17950;BME280;9100;48.700;9.316;2022-12-07T00:37:32;97750.2;;;5.46;100
17950;BME280;9100;48.700;9.316;2022-12-07T00:38:32;97758.6;;;5.46;100
17950;BME280;9100;48.700;9.316;2022-12-07T00:39:32;97761.3;;;5.45;100
17950;BME280;9100;48.700;9.316;2022-12-07T00:40:32;97763;;;5.44;100
17950;BME280;9100;48.700;9.316;2022-12-07T00:40:43;97761.5;;;5.43;100
17950;BME280;9100;48.700;9.316;2022-12-07T00:41:32;97760.7;;;5.43;100
17950;BME280;9100;48.700;9.316;2022-12-07T00:42:32;97763;;;5.44;100
17950;BME280;9100;48.700;9.316;2022-12-07T00:43:32;97766.5;;;5.43;100
17950;BME280;9100;48.700;9.316;2022-12-07T00:44:32;97764.8;;;5.44;100
17950;BME280;9100;48.700;9.316;2022-12-07T00:45:32;97764.9;;;5.42;100
17950;BME280;9100;48.700;9.316;2022-12-07T00:45:43;97763.2;;;5.43;100
17950;BME280;9100;48.700;9.316;2022-12-07T00:46:32;97766.5;;;5.43;100
17950;BME280;9100;48.700;9.316;2022-12-07T00:47:32;97767.3;;;5.44;100
17950;BME280;9100;48.700;9.316;2022-12-07T00:48:32;97758;;;5.44;100
17950;BME280;9100;48.700;9.316;2022-12-07T00:49:32;97762.09999999999;;;5.45;100
17950;BME280;9100;48.700;9.316;2022-12-07T00:50:32;97755.6;;;5.43;100
17950;BME280;9100;48.700;9.316;2022-12-07T00:50:43;97754.5;;;5.45;100
17950;BME280;9100;48.700;9.316;2022-12-07T00:51:32;97763;;;5.44;100
17950;BME280;9100;48.700;9.316;2022-12-07T00:52:32;97758.8;;;5.45;100
17950;BME280;9100;48.700;9.316;2022-12-07T00:53:33;97756.4;;;5.43;100
17950;BME280;9100;48.700;9.316;2022-12-07T00:54:32;97765.59999999999;;;5.44;100
17950;BME280;9100;48.700;9.316;2022-12-07T00:55:32;97761.5;;;5.43;100
17950;BME280;9100;48.700;9.316;2022-12-07T00:55:43;97761.5;;;5.43;100
17950;BME280;9100;48.700;9.316;2022-12-07T00:56:32;97762.40000000001;;;5.42;100
17950;BME280;9100;48.700;9.316;2022-12-07T00:57:32;97760.7;;;5.43;100
17950;BME280;9100;48.700;9.316;2022-12-07T00:58:32;97763;;;5.44;100
17950;BME280;9100;48.700;9.316;2022-12-07T00:59:32;97753.9;;;5.43;100
17950;BME280;9100;48.700;9.316;2022-12-07T01:00:32;97760.7;;;5.43;100
17950;BME280;9100;48.700;9.316;2022-12-07T01:00:43;97758.90000000001;;;5.43;100
17950;BME280;9100;48.700;9.316;2022-12-07T01:01:33;97766.4;;;5.45;100
17950;BME280;9100;48.700;9.316;2022-12-07T01:02:32;97763.8;;;5.45;100
17950;BME280;9100;48.700;9.316;2022-12-07T01:03:32;97761.5;;;5.43;100
17950;BME280;9100;48.700;9.316;2022-12-07T01:04:33;97757.2;;;5.44;100
17950;BME280;9100;48.700;9.316;2022-12-07T01:05:32;97761.5;;;5.43;100
17950;BME280;9100;48.700;9.316;2022-12-07T01:05:49;97762.2;;;5.44;100
17950;BME280;9100;48.700;9.316;2022-12-07T01:06:32;97760.5;;;5.44;100
17950;BME280;9100;48.700;9.316;2022-12-07T01:07:32;97760.5;;;5.44;100
17950;BME280;9100;48.700;9.316;2022-12-07T01:08:32;97764.59999999999;;;5.45;100
17950;BME280;9100;48.700;9.316;2022-12-07T01:09:32;97763;;;5.44;100
17950;BME280;9100;48.700;9.316;2022-12-07T01:10:32;97761.2;;;5.46;100
17950;BME280;9100;48.700;9.316;2022-12-07T01:10:43;97755.4;;;5.44;100
17950;BME280;9100;48.700;9.316;2022-12-07T01:11:32;97764.59999999999;;;5.45;100
17950;BME280;9100;48.700;9.316;2022-12-07T01:12:32;97756.2;;;5.45;100
17950;BME280;9100;48.700;9.316;2022-12-07T01:13:32;97763;;;5.44;100
17950;BME280;9100;48.700;9.316;2022-12-07T01:14:32;97758.1;;;5.43;100
17950;BME280;9100;48.700;9.316;2022-12-07T01:15:32;97761.7;;;5.4;100
17950;BME280;9100;48.700;9.316;2022-12-07T01:15:43;97765.9;;;5.41;100
17950;BME280;9100;48.700;9.316;2022-12-07T01:16:32;97765.09999999999;;;5.41;100
17950;BME280;9100;48.700;9.316;2022-12-07T01:17:32;97767.7;;;5.39;100
17950;BME280;9100;48.700;9.316;2022-12-07T01:18:33;97757.7;;;5.37;100
17950;BME280;9100;48.700;9.316;2022-12-07T01:19:32;97757.9;;;5.36;100
17950;BME280;9100;48.700;9.316;2022-12-07T01:20:32;97763.9;;;5.35;100
17950;BME280;9100;48.700;9.316;2022-12-07T01:20:43;97759.79999999999;;;5.34;100
17950;BME280;9100;48.700;9.316;2022-12-07T01:21:33;97762.3;;;5.34;100
17950;BME280;9100;48.700;9.316;2022-12-07T01:22:35;97763.09999999999;;;5.34;100
17950;BME280;9100;48.700;9.316;2022-12-07T01:23:33;97760.7;;;5.33;100
17950;BME280;9100;48.700;9.316;2022-12-07T01:24:32;97757.2;;;5.34;100
17950;BME280;9100;48.700;9.316;2022-12-07T01:25:32;97763.2;;;5.33;100
17950;BME280;9100;48.700;9.316;2022-12-07T01:25:43;97765;;;5.32;100
17950;BME280;9100;48.700;9.316;2022-12-07T01:26:32;97765.8;;;5.33;100
17950;BME280;9100;48.700;9.316;2022-12-07T01:27:32;97765.8;;;5.33;100
17950;BME280;9100;48.700;9.316;2022-12-07T01:28:32;97764.20000000001;;;5.32;100
17950;BME280;9100;48.700;9.316;2022-12-07T01:29:32;97767.7;;;5.31;100
17950;BME280;9100;48.700;9.316;2022-12-07T01:30:32;97775.3;;;5.31;100
17950;BME280;9100;48.700;9.316;2022-12-07T01:30:43;97765.3;;;5.29;100
17950;BME280;9100;48.700;9.316;2022-12-07T01:31:32;97766.9;;;5.3;100
17950;BME280;9100;48.700;9.316;2022-12-07T01:32:32;97776.2;;;5.3;100
17950;BME280;9100;48.700;9.316;2022-12-07T01:33:33;97775.59999999999;;;5.28;100
17950;BME280;9100;48.700;9.316;2022-12-07T01:34:32;97772.2;;;5.27;100
17950;BME280;9100;48.700;9.316;2022-12-07T01:35:33;97778.4;;;5.25;100
17950;BME280;9100;48.700;9.316;2022-12-07T01:35:43;97773.29999999999;;;5.25;100
17950;BME280;9100;48.700;9.316;2022-12-07T01:36:32;97780;;;5.26;100
17950;BME280;9100;48.700;9.316;2022-12-07T01:37:33;97772.5;;;5.24;100
17950;BME280;9100;48.700;9.316;2022-12-07T01:38:32;97780.8;;;5.26;100
17950;BME280;9100;48.700;9.316;2022-12-07T01:39:32;97775.8;;;5.25;100
17950;BME280;9100;48.700;9.316;2022-12-07T01:40:32;97782.7;;;5.24;100
17950;BME280;9100;48.700;9.316;2022-12-07T01:40:43;97777.70000000001;;;5.23;100
17950;BME280;9100;48.700;9.316;2022-12-07T01:41:33;97783.4;;;5.25;100
17950;BME280;9100;48.700;9.316;2022-12-07T01:42:32;97787.7;;;5.24;100
17950;BME280;9100;48.700;9.316;2022-12-07T01:43:32;97783.4;;;5.25;100
17950;BME280;9100;48.700;9.316;2022-12-07T01:44:32;97782.7;;;5.24;100
17950;BME280;9100;48.700;9.316;2022-12-07T01:45:37;97785.29999999999;;;5.23;100
17950;BME280;9100;48.700;9.316;2022-12-07T01:45:43;97786.2;;;5.22;100
17950;BME280;9100;48.700;9.316;2022-12-07T01:46:32;97777.8;;;5.21;100
17950;BME280;9100;48.700;9.316;2022-12-07T01:47:32;97771.2;;;5.11;100
17950;BME280;9100;48.700;9.316;2022-12-07T01:48:33;97784.7;;;5.21;100
17950;BME280;9100;48.700;9.316;2022-12-07T01:49:33;97781.3;;;5.2;100
17950;BME280;9100;48.700;9.316;2022-12-07T01:50:32;97784;;;5.19;100
17950;BME280;9100;48.700;9.316;2022-12-07T01:50:43;97776.59999999999;;;5.17;100
17950;BME280;9100;48.700;9.316;2022-12-07T01:51:32;97779.9;;;5.18;100
17950;BME280;9100;48.700;9.316;2022-12-07T01:52:33;97776.4;;;5.19;100
17950;BME280;9100;48.700;9.316;2022-12-07T01:53:32;97784.90000000001;;;5.18;100
17950;BME280;9100;48.700;9.316;2022-12-07T01:54:32;97789.20000000001;;;5.17;100
17950;BME280;9100;48.700;9.316;2022-12-07T01:55:32;97775;;;5.16;100
17950;BME280;9100;48.700;9.316;2022-12-07T01:55:44;97785.90000000001;;;5.17;100
17950;BME280;9100;48.700;9.316;2022-12-07T01:56:32;97780.8;;;5.17;100
17950;BME280;9100;48.700;9.316;2022-12-07T01:57:32;97773.2;;;5.17;100
17950;BME280;9100;48.700;9.316;2022-12-07T01:58:32;97727;;;4.78;100
17950;BME280;9100;48.700;9.316;2022-12-07T01:59:32;97723.40000000001;;;4.8;100
17950;BME280;9100;48.700;9.316;2022-12-07T02:00:32;97783.4;;;5.17;100
17950;BME280;9100;48.700;9.316;2022-12-07T02:00:43;97777.5;;;5.16;100
17950;BME280;9100;48.700;9.316;2022-12-07T02:01:32;97781;;;5.15;100
17950;BME280;9100;48.700;9.316;2022-12-07T02:02:33;97724.3;;;4.79;100
17950;BME280;9100;48.700;9.316;2022-12-07T02:03:32;97781;;;5.15;100
17950;BME280;9100;48.700;9.316;2022-12-07T02:04:32;97782.7;;;5.15;100
17950;BME280;9100;48.700;9.316;2022-12-07T02:05:32;97783.6;;;5.14;100
17950;BME280;9100;48.700;9.316;2022-12-07T02:05:43;97717.8;;;4.77;100
17950;BME280;9100;48.700;9.316;2022-12-07T02:06:32;97784.40000000001;;;5.14;100
17950;BME280;9100;48.700;9.316;2022-12-07T02:07:32;97787;;;5.14;100
17950;BME280;9100;48.700;9.316;2022-12-07T02:08:32;97784.6;;;5.13;100
17950;BME280;9100;48.700;9.316;2022-12-07T02:09:32;97789.59999999999;;;5.13;100
17950;BME280;9100;48.700;9.316;2022-12-07T02:10:32;97732.3;;;4.75;100
17950;BME280;9100;48.700;9.316;2022-12-07T02:10:43;97791.5;;;5.11;100
17950;BME280;9100;48.700;9.316;2022-12-07T02:11:32;97787.40000000001;;;5.1;100
17950;BME280;9100;48.700;9.316;2022-12-07T02:12:32;97787.40000000001;;;5.1;100
17950;BME280;9100;48.700;9.316;2022-12-07T02:13:32;97790.20000000001;;;5.07;100
17950;BME280;9100;48.700;9.316;2022-12-07T02:14:32;97784.3;;;5.06;100
17950;BME280;9100;48.700;9.316;2022-12-07T02:15:34;97785.40000000001;;;5.04;100
17950;BME280;9100;48.700;9.316;2022-12-07T02:15:45;97786.2;;;5.04;100
17950;BME280;9100;48.700;9.316;2022-12-07T02:16:34;97787;;;5.05;100
17950;BME280;9100;48.700;9.316;2022-12-07T02:17:34;97686.5;;;4.41;100
17950;BME280;9100;48.700;9.316;2022-12-07T02:18:37;97787.8;;;5.05;100
17950;BME280;9100;48.700;9.316;2022-12-07T02:19:46;97785.29999999999;;;5.05;100
17950;BME280;9100;48.700;9.316;2022-12-07T02:20:32;97786.2;;;5.04;100
17950;BME280;9100;48.700;9.316;2022-12-07T02:20:44;97792.1;;;5.05;100
17950;BME280;9100;48.700;9.316;2022-12-07T02:21:36;97724.90000000001;;;4.64;100
17950;BME280;9100;48.700;9.316;2022-12-07T02:22:39;97786.3;;;5.03;100
17950;BME280;9100;48.700;9.316;2022-12-07T02:23:39;97789.70000000001;;;5.03;100
17950;BME280;9100;48.700;9.316;2022-12-07T02:24:37;97782.9;;;5.04;100
17950;BME280;9100;48.700;9.316;2022-12-07T02:25:36;97730.5;;;4.67;100
17950;BME280;9100;48.700;9.316;2022-12-07T02:25:51;97782.2;;;5.02;100
17950;BME280;9100;48.700;9.316;2022-12-07T02:26:38;97785.40000000001;;;5.04;100
17950;BME280;9100;48.700;9.316;2022-12-07T02:27:36;97783.7;;;5.04;100
17950;BME280;9100;48.700;9.316;2022-12-07T02:28:33;97780.3;;;5.04;100
17950;BME280;9100;48.700;9.316;2022-12-07T02:29:32;97774.5;;;5.03;100
17950;BME280;9100;48.700;9.316;2022-12-07T02:30:32;97776.4;;;5.01;100
17950;BME280;9100;48.700;9.316;2022-12-07T02:30:44;97770.5;;;5.01;100
17950;BME280;9100;48.700;9.316;2022-12-07T02:31:32;97765.4;;;5.01;100
17950;BME280;9100;48.700;9.316;2022-12-07T02:32:35;97777.20000000001;;;5.02;100
17950;BME280;9100;48.700;9.316;2022-12-07T02:33:33;97771.1;;;5.03;100
17950;BME280;9100;48.700;9.316;2022-12-07T02:34:34;97767;;;5.02;100
17950;BME280;9100;48.700;9.316;2022-12-07T02:35:32;97774.59999999999;;;5.02;100
17950;BME280;9100;48.700;9.316;2022-12-07T02:35:44;97769.6;;;5.02;100
17950;BME280;9100;48.700;9.316;2022-12-07T02:36:32;97774.5;;;5.03;100
17950;BME280;9100;48.700;9.316;2022-12-07T02:37:33;97770.5;;;5.01;100
17950;BME280;9100;48.700;9.316;2022-12-07T02:38:34;97772.1;;;5.02;100
17950;BME280;9100;48.700;9.316;2022-12-07T02:39:33;97770.5;;;5.01;100
17950;BME280;9100;48.700;9.316;2022-12-07T02:40:33;97776.5;;;5;100
17950;BME280;9100;48.700;9.316;2022-12-07T02:40:43;97773;;;5.01;100
17950;BME280;9100;48.700;9.316;2022-12-07T02:41:33;97765.4;;;5.01;100
17950;BME280;9100;48.700;9.316;2022-12-07T02:42:33;97774.59999999999;;;5.02;100
17950;BME280;9100;48.700;9.316;2022-12-07T02:43:33;97771.1;;;5.03;100
17950;BME280;9100;48.700;9.316;2022-12-07T02:44:32;97768;;;5.01;100
17950;BME280;9100;48.700;9.316;2022-12-07T02:45:32;97776.2;;;5.03;100
17950;BME280;9100;48.700;9.316;2022-12-07T02:45:43;97770.5;;;5.01;100
17950;BME280;9100;48.700;9.316;2022-12-07T02:46:33;97772.1;;;5.02;100
17950;BME280;9100;48.700;9.316;2022-12-07T02:47:32;97763.7;;;5.01;100
17950;BME280;9100;48.700;9.316;2022-12-07T02:48:32;97774.5;;;5.03;100
17950;BME280;9100;48.700;9.316;2022-12-07T02:49:32;97774.5;;;5.03;100
17950;BME280;9100;48.700;9.316;2022-12-07T02:50:32;97773.7;;;5.03;100
17950;BME280;9100;48.700;9.316;2022-12-07T02:50:44;97769.4;;;5.03;100
17950;BME280;9100;48.700;9.316;2022-12-07T02:51:32;97770.2;;;5.04;100
17950;BME280;9100;48.700;9.316;2022-12-07T02:52:32;97775.9;;;5.06;100
17950;BME280;9100;48.700;9.316;2022-12-07T02:53:33;97775;;;5.07;100
17950;BME280;9100;48.700;9.316;2022-12-07T02:54:32;97769;;;5.08;100
17950;BME280;9100;48.700;9.316;2022-12-07T02:55:34;97770.7;;;5.07;100
17950;BME280;9100;48.700;9.316;2022-12-07T02:55:43;97774;;;5.08;100
17950;BME280;9100;48.700;9.316;2022-12-07T02:56:35;97768.2;;;5.07;100
17950;BME280;9100;48.700;9.316;2022-12-07T02:57:36;97774.90000000001;;;5.08;100
17950;BME280;9100;48.700;9.316;2022-12-07T02:58:34;97769;;;5.08;100
17950;BME280;9100;48.700;9.316;2022-12-07T02:59:35;97769;;;5.08;100
17950;BME280;9100;48.700;9.316;2022-12-07T03:00:32;97773.1;;;5.09;100
17950;BME280;9100;48.700;9.316;2022-12-07T03:00:45;97771.5;;;5.08;100
17950;BME280;9100;48.700;9.316;2022-12-07T03:01:34;97763;;;5.09;100
17950;BME280;9100;48.700;9.316;2022-12-07T03:02:35;97767.9;;;5.1;100
17950;BME280;9100;48.700;9.316;2022-12-07T03:03:32;97770.3;;;5.12;100
17950;BME280;9100;48.700;9.316;2022-12-07T03:04:34;97770.9;;;5.14;100
17950;BME280;9100;48.700;9.316;2022-12-07T03:05:36;97764.3;;;5.13;100
17950;BME280;9100;48.700;9.316;2022-12-07T03:05:46;97766.8;;;5.13;100
17950;BME280;9100;48.700;9.316;2022-12-07T03:06:32;97760.7;;;5.15;100
17950;BME280;9100;48.700;9.316;2022-12-07T03:07:33;97762.40000000001;;;5.15;100
17950;BME280;9100;48.700;9.316;2022-12-07T03:08:34;97760.79999999999;;;5.14;100
17950;BME280;9100;48.700;9.316;2022-12-07T03:09:33;97757.3;;;5.15;100
17950;BME280;9100;48.700;9.316;2022-12-07T03:10:34;97757.3;;;5.15;100
17950;BME280;9100;48.700;9.316;2022-12-07T03:10:45;97755.7;;;5.14;100
17950;BME280;9100;48.700;9.316;2022-12-07T03:11:33;97757.3;;;5.15;100
17950;BME280;9100;48.700;9.316;2022-12-07T03:12:34;97754.8;;;5.15;100
17950;BME280;9100;48.700;9.316;2022-12-07T03:13:33;97757.3;;;5.15;100
17950;BME280;9100;48.700;9.316;2022-12-07T03:14:33;97754.8;;;5.15;100
17950;BME280;9100;48.700;9.316;2022-12-07T03:15:33;97752.4;;;5.13;100
17950;BME280;9100;48.700;9.316;2022-12-07T03:15:45;97757.3;;;5.15;100
17950;BME280;9100;48.700;9.316;2022-12-07T03:16:33;97752.3;;;5.15;100
17950;BME280;9100;48.700;9.316;2022-12-07T03:17:32;97752.3;;;5.15;100
17950;BME280;9100;48.700;9.316;2022-12-07T03:18:33;97750.5;;;5.15;100
17950;BME280;9100;48.700;9.316;2022-12-07T03:19:32;97748.8;;;5.16;100
17950;BME280;9100;48.700;9.316;2022-12-07T03:20:32;97741.5;;;5.13;100
17950;BME280;9100;48.700;9.316;2022-12-07T03:20:43;97749.90000000001;;;5.13;100
17950;BME280;9100;48.700;9.316;2022-12-07T03:21:33;97745.6;;;5.14;100
17950;BME280;9100;48.700;9.316;2022-12-07T03:22:32;97750.5;;;5.15;100
17950;BME280;9100;48.700;9.316;2022-12-07T03:23:32;97754.8;;;5.15;100
17950;BME280;9100;48.700;9.316;2022-12-07T03:24:33;97756.5;;;5.14;100
17950;BME280;9100;48.700;9.316;2022-12-07T03:25:32;97755.7;;;5.14;100
17950;BME280;9100;48.700;9.316;2022-12-07T03:25:45;97756.7;;;5.13;100
17950;BME280;9100;48.700;9.316;2022-12-07T03:26:34;97759.2;;;5.13;100
17950;BME280;9100;48.700;9.316;2022-12-07T03:27:34;97755.7;;;5.14;100
17950;BME280;9100;48.700;9.316;2022-12-07T03:28:33;97757.6;;;5.12;100
17950;BME280;9100;48.700;9.316;2022-12-07T03:29:33;97759.2;;;5.13;100
17950;BME280;9100;48.700;9.316;2022-12-07T03:30:33;97755.1;;;5.12;100
17950;BME280;9100;48.700;9.316;2022-12-07T03:30:44;97756;;;5.11;100
17950;BME280;9100;48.700;9.316;2022-12-07T03:31:32;97751.8;;;5.11;100
17950;BME280;9100;48.700;9.316;2022-12-07T03:32:33;97756.8;;;5.11;100
17950;BME280;9100;48.700;9.316;2022-12-07T03:33:33;97757;;;5.1;100
17950;BME280;9100;48.700;9.316;2022-12-07T03:34:32;97755.5;;;5.07;100
17950;BME280;9100;48.700;9.316;2022-12-07T03:35:33;97751.3;;;5.08;100
17950;BME280;9100;48.700;9.316;2022-12-07T03:35:43;97752;;;5.08;100
17950;BME280;9100;48.700;9.316;2022-12-07T03:36:35;97751.3;;;5.08;100
17950;BME280;9100;48.700;9.316;2022-12-07T03:37:33;97764.59999999999;;;5.1;100
17950;BME280;9100;48.700;9.316;2022-12-07T03:38:32;97754.5;;;5.1;100
17950;BME280;9100;48.700;9.316;2022-12-07T03:39:33;97751.9;;;5.1;100
17950;BME280;9100;48.700;9.316;2022-12-07T03:40:32;97747.6;;;5.1;100
17950;BME280;9100;48.700;9.316;2022-12-07T03:40:44;97755.2;;;5.1;100
17950;BME280;9100;48.700;9.316;2022-12-07T03:41:33;97746.8;;;5.1;100
17950;BME280;9100;48.700;9.316;2022-12-07T03:42:32;97745.9;;;5.11;100
17950;BME280;9100;48.700;9.316;2022-12-07T03:43:32;97745;;;5.12;100
17950;BME280;9100;48.700;9.316;2022-12-07T03:44:32;97742.4;;;5.12;100
17950;BME280;9100;48.700;9.316;2022-12-07T03:45:32;97744.3;;;5.1;100
17950;BME280;9100;48.700;9.316;2022-12-07T03:45:43;97745.3;;;5.09;100
17950;BME280;9100;48.700;9.316;2022-12-07T03:46:34;97737.59999999999;;;5.09;100
17950;BME280;9100;48.700;9.316;2022-12-07T03:47:33;97744.3;;;5.1;100
17950;BME280;9100;48.700;9.316;2022-12-07T03:48:33;97748.29999999999;;;5.12;100
17950;BME280;9100;48.700;9.316;2022-12-07T03:49:32;97753.5;;;5.11;100
17950;BME280;9100;48.700;9.316;2022-12-07T03:50:34;97747.6;;;5.1;100
17950;BME280;9100;48.700;9.316;2022-12-07T03:50:43;97750.2;;;5.1;100
17950;BME280;9100;48.700;9.316;2022-12-07T03:51:33;97744.3;;;5.1;100
17950;BME280;9100;48.700;9.316;2022-12-07T03:52:33;97745.9;;;5.11;100
17950;BME280;9100;48.700;9.316;2022-12-07T03:53:33;97742.5;;;5.1;100
17950;BME280;9100;48.700;9.316;2022-12-07T03:54:33;97750;;;5.12;100
17950;BME280;9100;48.700;9.316;2022-12-07T03:55:32;97751.8;;;5.11;100
17950;BME280;9100;48.700;9.316;2022-12-07T03:55:43;97753.4;;;5.12;100
17950;BME280;9100;48.700;9.316;2022-12-07T03:56:32;97747.5;;;5.12;100
17950;BME280;9100;48.700;9.316;2022-12-07T03:57:32;97750.7;;;5.14;100
17950;BME280;9100;48.700;9.316;2022-12-07T03:58:32;97754.2;;;5.13;100
17950;BME280;9100;48.700;9.316;2022-12-07T03:59:32;97752.4;;;5.13;100
17950;BME280;9100;48.700;9.316;2022-12-07T04:00:32;97749.1;;;5.13;100
17950;BME280;9100;48.700;9.316;2022-12-07T04:00:43;97749.1;;;5.13;100
17950;BME280;9100;48.700;9.316;2022-12-07T04:01:32;97749.1;;;5.13;100
17950;BME280;9100;48.700;9.316;2022-12-07T04:02:32;97747.2;;;5.15;100
17950;BME280;9100;48.700;9.316;2022-12-07T04:03:32;97752.3;;;5.15;100
17950;BME280;9100;48.700;9.316;2022-12-07T04:04:32;97748.1;;;5.14;100
17950;BME280;9100;48.700;9.316;2022-12-07T04:05:32;97745.6;;;5.14;100
17950;BME280;9100;48.700;9.316;2022-12-07T04:05:43;97741.5;;;5.13;100
17950;BME280;9100;48.700;9.316;2022-12-07T04:06:32;97749.7;;;5.15;100
17950;BME280;9100;48.700;9.316;2022-12-07T04:07:32;97732.8;;;5.15;100
17950;BME280;9100;48.700;9.316;2022-12-07T04:08:32;97747.1;;;5.16;100
17950;BME280;9100;48.700;9.316;2022-12-07T04:09:32;97742.1;;;5.15;100
17950;BME280;9100;48.700;9.316;2022-12-07T04:10:32;97743.9;;;5.14;100
17950;BME280;9100;48.700;9.316;2022-12-07T04:10:43;97745.6;;;5.14;100
17950;BME280;9100;48.700;9.316;2022-12-07T04:11:32;97740.5;;;5.14;100
17950;BME280;9100;48.700;9.316;2022-12-07T04:12:32;97740.5;;;5.14;100
17950;BME280;9100;48.700;9.316;2022-12-07T04:13:32;97745.6;;;5.14;100
17950;BME280;9100;48.700;9.316;2022-12-07T04:14:32;97739.9;;;5.12;100
17950;BME280;9100;48.700;9.316;2022-12-07T04:15:32;97735.7;;;5.11;100
17950;BME280;9100;48.700;9.316;2022-12-07T04:15:43;97737.40000000001;;;5.12;100
17950;BME280;9100;48.700;9.316;2022-12-07T04:16:32;97748.29999999999;;;5.12;100
17950;BME280;9100;48.700;9.316;2022-12-07T04:17:32;97745.9;;;5.11;100
17950;BME280;9100;48.700;9.316;2022-12-07T04:18:32;97736.5;;;5.11;100
17950;BME280;9100;48.700;9.316;2022-12-07T04:19:33;97737.40000000001;;;5.12;100
17950;BME280;9100;48.700;9.316;2022-12-07T04:20:32;97740.20000000001;;;5.09;100
17950;BME280;9100;48.700;9.316;2022-12-07T04:20:43;97736.8;;;5.08;100
17950;BME280;9100;48.700;9.316;2022-12-07T04:21:32;97739.3;;;5.1;100
17950;BME280;9100;48.700;9.316;2022-12-07T04:22:32;97739.4;;;5.08;100
17950;BME280;9100;48.700;9.316;2022-12-07T04:23:32;97735.40000000001;;;5.06;100
17950;BME280;9100;48.700;9.316;2022-12-07T04:24:33;97733.8;;;5.05;100
17950;BME280;9100;48.700;9.316;2022-12-07T04:25:32;97737.40000000001;;;5.02;100
17950;BME280;9100;48.700;9.316;2022-12-07T04:25:43;97736.6;;;5.02;100
17950;BME280;9100;48.700;9.316;2022-12-07T04:26:32;97733.4;;;5;100
17950;BME280;9100;48.700;9.316;2022-12-07T04:27:32;97733.7;;;4.97;100
17950;BME280;9100;48.700;9.316;2022-12-07T04:28:32;97735.7;;;4.93;100
17950;BME280;9100;48.700;9.316;2022-12-07T04:29:32;97738.5;;;4.9;100
17950;BME280;9100;48.700;9.316;2022-12-07T04:30:32;97736.1;;;4.88;100
17950;BME280;9100;48.700;9.316;2022-12-07T04:30:43;97733.6;;;4.88;100
17950;BME280;9100;48.700;9.316;2022-12-07T04:31:32;97736.1;;;4.88;100
17950;BME280;9100;48.700;9.316;2022-12-07T04:32:32;97740.4;;;4.88;100
17950;BME280;9100;48.700;9.316;2022-12-07T04:33:32;97731.4;;;4.85;100
17950;BME280;9100;48.700;9.316;2022-12-07T04:34:32;97730.4;;;4.86;100
17950;BME280;9100;48.700;9.316;2022-12-07T04:35:32;97736.40000000001;;;4.85;100
17950;BME280;9100;48.700;9.316;2022-12-07T04:35:43;97738;;;4.86;100
17950;BME280;9100;48.700;9.316;2022-12-07T04:36:32;97734.79999999999;;;4.84;100
17950;BME280;9100;48.700;9.316;2022-12-07T04:37:32;97735.6;;;4.85;100
17950;BME280;9100;48.700;9.316;2022-12-07T04:38:32;97730.7;;;4.83;100